sensor_id;sensor_type;location;lat;lon;timestamp;P1;durP1;ratioP1;P2;durP2;ratioP2
32838;SDS011;19182;41.820;12.808;2023-07-09T00:01:58;9.93;;;6.53;;
32838;SDS011;19182;41.820;12.808;2023-07-09T00:04:24;11.02;;;6.75;;
32838;SDS011;19182;41.820;12.808;2023-07-09T00:06:53;15.88;;;7.55;;
32838;SDS011;19182;41.820;12.808;2023-07-09T00:09:21;14.30;;;7.45;;
32838;SDS011;19182;41.820;12.808;2023-07-09T00:11:47;10.90;;;7.53;;
32838;SDS011;19182;41.820;12.808;2023-07-09T00:14:13;11.43;;;6.57;;
32838;SDS011;19182;41.820;12.808;2023-07-09T00:16:42;12.52;;;7.45;;
32838;SDS011;19182;41.820;12.808;2023-07-09T00:19:16;11.27;;;7.37;;
32838;SDS011;19182;41.820;12.808;2023-07-09T00:21:49;12.55;;;6.78;;
32838;SDS011;19182;41.820;12.808;2023-07-09T00:24:19;9.82;;;7.38;;
32838;SDS011;19182;41.820;12.808;2023-07-09T00:26:46;14.48;;;8.00;;
32838;SDS011;19182;41.820;12.808;2023-07-09T00:29:13;12.07;;;7.78;;
32838;SDS011;19182;41.820;12.808;2023-07-09T00:31:40;12.02;;;7.05;;
32838;SDS011;19182;41.820;12.808;2023-07-09T00:34:11;12.07;;;7.30;;
32838;SDS011;19182;41.820;12.808;2023-07-09T00:36:37;15.80;;;8.18;;
32838;SDS011;19182;41.820;12.808;2023-07-09T00:39:03;13.98;;;8.82;;
32838;SDS011;19182;41.820;12.808;2023-07-09T00:41:31;17.52;;;8.95;;
32838;SDS011;19182;41.820;12.808;2023-07-09T00:49:12;22.42;;;10.82;;
32838;SDS011;19182;41.820;12.808;2023-07-09T00:51:42;18.15;;;10.95;;
32838;SDS011;19182;41.820;12.808;2023-07-09T00:54:22;22.40;;;12.23;;
32838;SDS011;19182;41.820;12.808;2023-07-09T00:56:55;23.52;;;12.07;;
32838;SDS011;19182;41.820;12.808;2023-07-09T00:59:26;17.27;;;11.85;;
32838;SDS011;19182;41.820;12.808;2023-07-09T01:01:56;21.90;;;12.38;;
32838;SDS011;19182;41.820;12.808;2023-07-09T01:04:25;19.40;;;12.40;;
32838;SDS011;19182;41.820;12.808;2023-07-09T01:06:52;19.45;;;11.43;;
32838;SDS011;19182;41.820;12.808;2023-07-09T01:09:22;18.83;;;11.07;;
32838;SDS011;19182;41.820;12.808;2023-07-09T01:11:48;19.52;;;10.77;;
32838;SDS011;19182;41.820;12.808;2023-07-09T01:14:16;20.45;;;10.75;;
32838;SDS011;19182;41.820;12.808;2023-07-09T01:16:48;20.98;;;10.30;;
32838;SDS011;19182;41.820;12.808;2023-07-09T01:19:22;15.85;;;10.43;;
32838;SDS011;19182;41.820;12.808;2023-07-09T01:21:52;14.50;;;9.73;;
32838;SDS011;19182;41.820;12.808;2023-07-09T01:27:14;13.05;;;9.07;;
32838;SDS011;19182;41.820;12.808;2023-07-09T01:29:41;15.77;;;8.25;;
32838;SDS011;19182;41.820;12.808;2023-07-09T01:32:15;14.73;;;8.88;;
32838;SDS011;19182;41.820;12.808;2023-07-09T01:34:49;15.23;;;8.77;;
32838;SDS011;19182;41.820;12.808;2023-07-09T01:37:20;12.07;;;8.68;;
32838;SDS011;19182;41.820;12.808;2023-07-09T01:39:51;14.07;;;8.45;;
32838;SDS011;19182;41.820;12.808;2023-07-09T01:42:18;13.77;;;8.60;;
32838;SDS011;19182;41.820;12.808;2023-07-09T01:44:50;11.13;;;8.20;;
32838;SDS011;19182;41.820;12.808;2023-07-09T01:47:17;12.55;;;8.52;;
32838;SDS011;19182;41.820;12.808;2023-07-09T01:49:43;10.48;;;8.32;;
32838;SDS011;19182;41.820;12.808;2023-07-09T01:52:16;11.82;;;8.13;;
32838;SDS011;19182;41.820;12.808;2023-07-09T01:54:44;13.05;;;8.38;;
32838;SDS011;19182;41.820;12.808;2023-07-09T01:57:27;8.57;;;7.68;;
32838;SDS011;19182;41.820;12.808;2023-07-09T02:00:10;12.48;;;8.38;;
32838;SDS011;19182;41.820;12.808;2023-07-09T02:02:38;16.58;;;8.85;;
32838;SDS011;19182;41.820;12.808;2023-07-09T02:05:11;12.68;;;7.95;;
32838;SDS011;19182;41.820;12.808;2023-07-09T02:07:40;11.82;;;7.70;;
32838;SDS011;19182;41.820;12.808;2023-07-09T02:10:06;12.18;;;8.25;;
32838;SDS011;19182;41.820;12.808;2023-07-09T02:12:33;10.63;;;8.05;;
32838;SDS011;19182;41.820;12.808;2023-07-09T02:14:58;13.13;;;8.40;;
32838;SDS011;19182;41.820;12.808;2023-07-09T02:17:24;13.45;;;8.60;;
32838;SDS011;19182;41.820;12.808;2023-07-09T02:19:50;10.60;;;7.78;;
32838;SDS011;19182;41.820;12.808;2023-07-09T02:22:16;19.85;;;8.27;;
32838;SDS011;19182;41.820;12.808;2023-07-09T02:24:44;11.63;;;8.23;;
32838;SDS011;19182;41.820;12.808;2023-07-09T02:27:10;10.73;;;8.18;;
32838;SDS011;19182;41.820;12.808;2023-07-09T02:29:37;9.95;;;7.40;;
32838;SDS011;19182;41.820;12.808;2023-07-09T02:32:03;16.83;;;8.65;;
32838;SDS011;19182;41.820;12.808;2023-07-09T02:34:29;11.68;;;8.13;;
32838;SDS011;19182;41.820;12.808;2023-07-09T02:36:56;13.32;;;8.10;;
32838;SDS011;19182;41.820;12.808;2023-07-09T02:39:22;16.17;;;7.93;;
32838;SDS011;19182;41.820;12.808;2023-07-09T02:41:49;12.00;;;8.43;;
32838;SDS011;19182;41.820;12.808;2023-07-09T02:44:16;13.57;;;8.90;;
32838;SDS011;19182;41.820;12.808;2023-07-09T02:46:42;13.32;;;7.95;;
32838;SDS011;19182;41.820;12.808;2023-07-09T02:49:09;13.43;;;8.07;;
32838;SDS011;19182;41.820;12.808;2023-07-09T02:51:37;11.63;;;7.82;;
32838;SDS011;19182;41.820;12.808;2023-07-09T02:54:03;13.18;;;8.02;;
32838;SDS011;19182;41.820;12.808;2023-07-09T02:56:30;14.45;;;7.93;;
32838;SDS011;19182;41.820;12.808;2023-07-09T02:58:56;14.85;;;8.50;;
32838;SDS011;19182;41.820;12.808;2023-07-09T03:01:23;11.65;;;8.32;;
32838;SDS011;19182;41.820;12.808;2023-07-09T03:03:52;15.35;;;8.15;;
32838;SDS011;19182;41.820;12.808;2023-07-09T03:06:24;14.05;;;8.20;;
32838;SDS011;19182;41.820;12.808;2023-07-09T03:08:51;11.82;;;8.00;;
32838;SDS011;19182;41.820;12.808;2023-07-09T03:11:17;12.85;;;7.68;;
32838;SDS011;19182;41.820;12.808;2023-07-09T03:13:44;12.30;;;8.60;;
32838;SDS011;19182;41.820;12.808;2023-07-09T03:16:11;11.25;;;8.13;;
32838;SDS011;19182;41.820;12.808;2023-07-09T03:18:36;11.55;;;8.18;;
32838;SDS011;19182;41.820;12.808;2023-07-09T03:21:02;14.07;;;9.15;;
32838;SDS011;19182;41.820;12.808;2023-07-09T03:23:28;9.27;;;8.18;;
32838;SDS011;19182;41.820;12.808;2023-07-09T03:25:54;11.85;;;8.35;;
32838;SDS011;19182;41.820;12.808;2023-07-09T03:28:21;16.30;;;9.32;;
32838;SDS011;19182;41.820;12.808;2023-07-09T03:30:47;11.90;;;8.50;;
32838;SDS011;19182;41.820;12.808;2023-07-09T03:33:14;17.67;;;9.05;;
32838;SDS011;19182;41.820;12.808;2023-07-09T03:35:41;14.48;;;9.30;;
32838;SDS011;19182;41.820;12.808;2023-07-09T03:38:08;14.80;;;9.15;;
32838;SDS011;19182;41.820;12.808;2023-07-09T03:40:35;12.85;;;9.63;;
32838;SDS011;19182;41.820;12.808;2023-07-09T03:43:06;13.00;;;8.90;;
32838;SDS011;19182;41.820;12.808;2023-07-09T03:45:49;15.82;;;9.60;;
32838;SDS011;19182;41.820;12.808;2023-07-09T03:48:15;16.63;;;9.65;;
32838;SDS011;19182;41.820;12.808;2023-07-09T03:50:43;12.63;;;8.90;;
32838;SDS011;19182;41.820;12.808;2023-07-09T03:53:11;15.02;;;9.00;;
32838;SDS011;19182;41.820;12.808;2023-07-09T03:55:37;14.32;;;9.63;;
32838;SDS011;19182;41.820;12.808;2023-07-09T03:58:03;16.75;;;9.02;;
32838;SDS011;19182;41.820;12.808;2023-07-09T04:00:31;13.18;;;9.05;;
32838;SDS011;19182;41.820;12.808;2023-07-09T04:02:57;13.82;;;9.23;;
32838;SDS011;19182;41.820;12.808;2023-07-09T04:05:24;12.85;;;8.30;;
32838;SDS011;19182;41.820;12.808;2023-07-09T04:07:52;19.30;;;9.43;;
32838;SDS011;19182;41.820;12.808;2023-07-09T04:10:19;14.20;;;8.65;;
32838;SDS011;19182;41.820;12.808;2023-07-09T04:12:45;14.18;;;9.00;;
32838;SDS011;19182;41.820;12.808;2023-07-09T04:15:11;12.13;;;8.38;;
32838;SDS011;19182;41.820;12.808;2023-07-09T04:17:38;14.27;;;9.13;;
32838;SDS011;19182;41.820;12.808;2023-07-09T04:20:05;17.98;;;9.45;;
32838;SDS011;19182;41.820;12.808;2023-07-09T04:22:32;14.32;;;8.70;;
32838;SDS011;19182;41.820;12.808;2023-07-09T04:25:00;14.35;;;8.23;;
32838;SDS011;19182;41.820;12.808;2023-07-09T04:27:28;12.63;;;8.40;;
32838;SDS011;19182;41.820;12.808;2023-07-09T04:29:55;15.57;;;8.57;;
32838;SDS011;19182;41.820;12.808;2023-07-09T04:32:20;11.65;;;7.55;;
32838;SDS011;19182;41.820;12.808;2023-07-09T04:34:47;12.40;;;8.40;;
32838;SDS011;19182;41.820;12.808;2023-07-09T04:37:13;13.00;;;8.25;;
32838;SDS011;19182;41.820;12.808;2023-07-09T04:39:41;13.30;;;7.95;;
32838;SDS011;19182;41.820;12.808;2023-07-09T04:42:10;15.13;;;8.88;;
32838;SDS011;19182;41.820;12.808;2023-07-09T04:44:38;13.20;;;8.88;;
32838;SDS011;19182;41.820;12.808;2023-07-09T04:47:04;15.40;;;9.30;;
32838;SDS011;19182;41.820;12.808;2023-07-09T04:49:30;14.25;;;7.82;;
32838;SDS011;19182;41.820;12.808;2023-07-09T04:51:57;14.77;;;9.27;;
32838;SDS011;19182;41.820;12.808;2023-07-09T04:54:24;16.90;;;9.57;;
32838;SDS011;19182;41.820;12.808;2023-07-09T04:56:50;12.75;;;8.43;;
32838;SDS011;19182;41.820;12.808;2023-07-09T04:59:16;12.07;;;7.97;;
32838;SDS011;19182;41.820;12.808;2023-07-09T05:01:41;13.40;;;8.32;;
32838;SDS011;19182;41.820;12.808;2023-07-09T05:04:08;12.38;;;7.95;;
32838;SDS011;19182;41.820;12.808;2023-07-09T05:06:35;12.75;;;8.20;;
32838;SDS011;19182;41.820;12.808;2023-07-09T05:09:00;14.43;;;7.70;;
32838;SDS011;19182;41.820;12.808;2023-07-09T05:11:26;11.77;;;7.18;;
32838;SDS011;19182;41.820;12.808;2023-07-09T05:13:52;15.05;;;7.25;;
32838;SDS011;19182;41.820;12.808;2023-07-09T05:16:19;20.02;;;8.77;;
32838;SDS011;19182;41.820;12.808;2023-07-09T05:18:46;14.70;;;6.65;;
32838;SDS011;19182;41.820;12.808;2023-07-09T05:21:12;16.80;;;8.10;;
32838;SDS011;19182;41.820;12.808;2023-07-09T05:23:38;16.90;;;7.50;;
32838;SDS011;19182;41.820;12.808;2023-07-09T05:26:04;11.23;;;7.07;;
32838;SDS011;19182;41.820;12.808;2023-07-09T05:28:30;22.08;;;7.90;;
32838;SDS011;19182;41.820;12.808;2023-07-09T05:31:00;13.27;;;7.00;;
32838;SDS011;19182;41.820;12.808;2023-07-09T05:33:26;11.90;;;6.85;;
32838;SDS011;19182;41.820;12.808;2023-07-09T05:35:51;12.00;;;6.32;;
32838;SDS011;19182;41.820;12.808;2023-07-09T05:38:17;11.32;;;6.18;;
32838;SDS011;19182;41.820;12.808;2023-07-09T05:40:43;11.63;;;7.50;;
32838;SDS011;19182;41.820;12.808;2023-07-09T05:43:09;10.60;;;6.47;;
32838;SDS011;19182;41.820;12.808;2023-07-09T05:45:35;13.95;;;6.93;;
32838;SDS011;19182;41.820;12.808;2023-07-09T05:48:03;10.93;;;6.85;;
32838;SDS011;19182;41.820;12.808;2023-07-09T05:50:29;11.30;;;7.10;;
32838;SDS011;19182;41.820;12.808;2023-07-09T05:52:54;10.18;;;6.68;;
32838;SDS011;19182;41.820;12.808;2023-07-09T05:55:20;15.40;;;6.82;;
32838;SDS011;19182;41.820;12.808;2023-07-09T05:57:46;9.02;;;5.75;;
32838;SDS011;19182;41.820;12.808;2023-07-09T06:00:12;10.80;;;6.47;;
32838;SDS011;19182;41.820;12.808;2023-07-09T06:02:38;11.73;;;6.43;;
32838;SDS011;19182;41.820;12.808;2023-07-09T06:05:04;12.15;;;6.53;;
32838;SDS011;19182;41.820;12.808;2023-07-09T06:07:34;13.15;;;6.72;;
32838;SDS011;19182;41.820;12.808;2023-07-09T06:10:02;12.40;;;6.72;;
32838;SDS011;19182;41.820;12.808;2023-07-09T06:12:30;13.32;;;7.10;;
32838;SDS011;19182;41.820;12.808;2023-07-09T06:14:56;10.75;;;6.43;;
32838;SDS011;19182;41.820;12.808;2023-07-09T06:17:21;14.30;;;6.65;;
32838;SDS011;19182;41.820;12.808;2023-07-09T06:19:47;9.70;;;6.60;;
32838;SDS011;19182;41.820;12.808;2023-07-09T06:22:14;17.48;;;7.05;;
32838;SDS011;19182;41.820;12.808;2023-07-09T06:24:40;10.65;;;6.57;;
32838;SDS011;19182;41.820;12.808;2023-07-09T06:27:05;14.25;;;6.07;;
32838;SDS011;19182;41.820;12.808;2023-07-09T06:29:31;12.43;;;6.38;;
32838;SDS011;19182;41.820;12.808;2023-07-09T06:31:57;8.45;;;6.07;;
32838;SDS011;19182;41.820;12.808;2023-07-09T06:34:22;11.80;;;5.57;;
32838;SDS011;19182;41.820;12.808;2023-07-09T06:36:48;11.57;;;6.75;;
32838;SDS011;19182;41.820;12.808;2023-07-09T06:39:15;14.45;;;7.50;;
32838;SDS011;19182;41.820;12.808;2023-07-09T06:44:10;11.25;;;6.97;;
32838;SDS011;19182;41.820;12.808;2023-07-09T06:46:36;10.57;;;6.47;;
32838;SDS011;19182;41.820;12.808;2023-07-09T06:49:02;12.77;;;6.05;;
32838;SDS011;19182;41.820;12.808;2023-07-09T06:51:30;9.95;;;5.55;;
32838;SDS011;19182;41.820;12.808;2023-07-09T06:53:56;10.27;;;6.47;;
32838;SDS011;19182;41.820;12.808;2023-07-09T06:56:23;14.15;;;6.47;;
32838;SDS011;19182;41.820;12.808;2023-07-09T06:58:49;17.80;;;6.93;;
32838;SDS011;19182;41.820;12.808;2023-07-09T07:01:14;12.77;;;6.43;;
32838;SDS011;19182;41.820;12.808;2023-07-09T07:03:42;16.95;;;6.75;;
32838;SDS011;19182;41.820;12.808;2023-07-09T07:06:07;12.82;;;6.68;;
32838;SDS011;19182;41.820;12.808;2023-07-09T07:08:34;14.35;;;6.47;;
32838;SDS011;19182;41.820;12.808;2023-07-09T07:11:00;9.43;;;6.35;;
32838;SDS011;19182;41.820;12.808;2023-07-09T07:13:29;15.43;;;6.57;;
32838;SDS011;19182;41.820;12.808;2023-07-09T07:15:55;8.35;;;6.13;;
32838;SDS011;19182;41.820;12.808;2023-07-09T07:18:21;13.23;;;6.13;;
32838;SDS011;19182;41.820;12.808;2023-07-09T07:20:48;13.40;;;6.15;;
32838;SDS011;19182;41.820;12.808;2023-07-09T07:23:15;10.65;;;6.38;;
32838;SDS011;19182;41.820;12.808;2023-07-09T07:25:41;10.80;;;6.35;;
32838;SDS011;19182;41.820;12.808;2023-07-09T07:28:06;12.98;;;6.13;;
32838;SDS011;19182;41.820;12.808;2023-07-09T07:30:32;8.85;;;6.10;;
32838;SDS011;19182;41.820;12.808;2023-07-09T07:32:59;12.10;;;5.70;;
32838;SDS011;19182;41.820;12.808;2023-07-09T07:35:26;11.40;;;5.60;;
32838;SDS011;19182;41.820;12.808;2023-07-09T07:37:52;9.93;;;5.97;;
32838;SDS011;19182;41.820;12.808;2023-07-09T07:40:18;12.55;;;5.35;;
32838;SDS011;19182;41.820;12.808;2023-07-09T07:42:44;8.68;;;5.45;;
32838;SDS011;19182;41.820;12.808;2023-07-09T07:45:10;10.13;;;4.57;;
32838;SDS011;19182;41.820;12.808;2023-07-09T07:47:37;9.10;;;5.45;;
32838;SDS011;19182;41.820;12.808;2023-07-09T07:50:04;11.77;;;5.80;;
32838;SDS011;19182;41.820;12.808;2023-07-09T07:52:31;12.32;;;5.60;;
32838;SDS011;19182;41.820;12.808;2023-07-09T07:54:57;10.45;;;5.13;;
32838;SDS011;19182;41.820;12.808;2023-07-09T07:57:26;9.18;;;4.97;;
32838;SDS011;19182;41.820;12.808;2023-07-09T07:59:53;12.27;;;5.43;;
32838;SDS011;19182;41.820;12.808;2023-07-09T08:02:19;10.70;;;4.90;;
32838;SDS011;19182;41.820;12.808;2023-07-09T08:04:45;10.45;;;5.30;;
32838;SDS011;19182;41.820;12.808;2023-07-09T08:07:11;14.52;;;4.97;;
32838;SDS011;19182;41.820;12.808;2023-07-09T08:09:38;9.65;;;5.28;;
32838;SDS011;19182;41.820;12.808;2023-07-09T08:12:04;9.55;;;4.45;;
32838;SDS011;19182;41.820;12.808;2023-07-09T08:14:38;20.73;;;9.48;;
32838;SDS011;19182;41.820;12.808;2023-07-09T08:17:07;9.15;;;4.68;;
32838;SDS011;19182;41.820;12.808;2023-07-09T08:19:43;10.60;;;5.03;;
32838;SDS011;19182;41.820;12.808;2023-07-09T08:22:10;11.27;;;5.20;;
32838;SDS011;19182;41.820;12.808;2023-07-09T08:24:36;9.82;;;5.22;;
32838;SDS011;19182;41.820;12.808;2023-07-09T08:27:02;8.30;;;5.30;;
32838;SDS011;19182;41.820;12.808;2023-07-09T08:29:29;8.20;;;5.40;;
32838;SDS011;19182;41.820;12.808;2023-07-09T08:31:55;8.75;;;5.45;;
32838;SDS011;19182;41.820;12.808;2023-07-09T08:34:20;9.10;;;4.95;;
32838;SDS011;19182;41.820;12.808;2023-07-09T08:36:46;12.93;;;6.95;;
32838;SDS011;19182;41.820;12.808;2023-07-09T08:39:12;8.52;;;4.25;;
32838;SDS011;19182;41.820;12.808;2023-07-09T08:41:45;9.02;;;4.70;;
32838;SDS011;19182;41.820;12.808;2023-07-09T08:47:00;9.85;;;4.95;;
32838;SDS011;19182;41.820;12.808;2023-07-09T08:52:20;11.50;;;4.93;;
32838;SDS011;19182;41.820;12.808;2023-07-09T08:55:09;13.07;;;5.70;;
32838;SDS011;19182;41.820;12.808;2023-07-09T08:57:42;14.10;;;5.38;;
32838;SDS011;19182;41.820;12.808;2023-07-09T09:00:23;8.82;;;5.53;;
32838;SDS011;19182;41.820;12.808;2023-07-09T09:06:02;9.63;;;5.35;;
32838;SDS011;19182;41.820;12.808;2023-07-09T09:08:48;8.75;;;5.00;;
32838;SDS011;19182;41.820;12.808;2023-07-09T09:14:56;8.13;;;4.65;;
32838;SDS011;19182;41.820;12.808;2023-07-09T09:17:29;9.88;;;5.10;;
32838;SDS011;19182;41.820;12.808;2023-07-09T09:19:59;8.98;;;4.38;;
32838;SDS011;19182;41.820;12.808;2023-07-09T09:23:18;9.30;;;4.80;;
32838;SDS011;19182;41.820;12.808;2023-07-09T09:25:34;9.30;;;5.43;;
32838;SDS011;19182;41.820;12.808;2023-07-09T09:28:04;10.02;;;4.63;;
32838;SDS011;19182;41.820;12.808;2023-07-09T09:30:32;9.70;;;5.30;;
32838;SDS011;19182;41.820;12.808;2023-07-09T09:33:02;8.43;;;4.53;;
32838;SDS011;19182;41.820;12.808;2023-07-09T09:35:33;10.85;;;4.95;;
32838;SDS011;19182;41.820;12.808;2023-07-09T09:38:10;9.95;;;5.25;;
32838;SDS011;19182;41.820;12.808;2023-07-09T09:40:44;7.82;;;4.65;;
32838;SDS011;19182;41.820;12.808;2023-07-09T09:43:17;12.88;;;7.75;;
32838;SDS011;19182;41.820;12.808;2023-07-09T09:45:47;11.40;;;6.13;;
32838;SDS011;19182;41.820;12.808;2023-07-09T09:48:16;10.23;;;5.47;;
32838;SDS011;19182;41.820;12.808;2023-07-09T09:50:45;10.00;;;5.00;;
32838;SDS011;19182;41.820;12.808;2023-07-09T09:53:22;11.48;;;4.95;;
32838;SDS011;19182;41.820;12.808;2023-07-09T09:55:50;10.93;;;6.88;;
32838;SDS011;19182;41.820;12.808;2023-07-09T09:58:19;11.15;;;6.95;;
32838;SDS011;19182;41.820;12.808;2023-07-09T10:00:52;21.92;;;10.27;;
32838;SDS011;19182;41.820;12.808;2023-07-09T10:03:20;10.32;;;4.90;;
32838;SDS011;19182;41.820;12.808;2023-07-09T10:08:34;12.95;;;5.15;;
32838;SDS011;19182;41.820;12.808;2023-07-09T10:11:18;9.85;;;5.72;;
32838;SDS011;19182;41.820;12.808;2023-07-09T10:13:46;8.95;;;5.50;;
32838;SDS011;19182;41.820;12.808;2023-07-09T10:16:17;13.32;;;5.97;;
32838;SDS011;19182;41.820;12.808;2023-07-09T10:18:59;9.95;;;4.82;;
32838;SDS011;19182;41.820;12.808;2023-07-09T10:21:42;9.52;;;5.43;;
32838;SDS011;19182;41.820;12.808;2023-07-09T10:26:46;11.23;;;7.10;;
32838;SDS011;19182;41.820;12.808;2023-07-09T10:29:30;9.07;;;5.35;;
32838;SDS011;19182;41.820;12.808;2023-07-09T10:35:05;9.15;;;4.82;;
32838;SDS011;19182;41.820;12.808;2023-07-09T10:40:55;6.80;;;4.55;;
32838;SDS011;19182;41.820;12.808;2023-07-09T10:46:10;15.45;;;4.63;;
32838;SDS011;19182;41.820;12.808;2023-07-09T10:48:47;11.52;;;4.93;;
32838;SDS011;19182;41.820;12.808;2023-07-09T10:51:29;12.13;;;4.97;;
32838;SDS011;19182;41.820;12.808;2023-07-09T10:56:33;7.22;;;4.50;;
32838;SDS011;19182;41.820;12.808;2023-07-09T10:59:20;7.45;;;4.88;;
32838;SDS011;19182;41.820;12.808;2023-07-09T11:02:08;7.40;;;4.47;;
32838;SDS011;19182;41.820;12.808;2023-07-09T11:05:03;5.85;;;3.80;;
32838;SDS011;19182;41.820;12.808;2023-07-09T11:07:36;11.90;;;5.10;;
32838;SDS011;19182;41.820;12.808;2023-07-09T11:10:44;8.20;;;4.88;;
32838;SDS011;19182;41.820;12.808;2023-07-09T11:13:16;6.65;;;5.00;;
32838;SDS011;19182;41.820;12.808;2023-07-09T11:15:50;12.77;;;6.63;;
32838;SDS011;19182;41.820;12.808;2023-07-09T11:18:32;9.50;;;6.05;;
32838;SDS011;19182;41.820;12.808;2023-07-09T11:21:03;9.80;;;6.03;;
32838;SDS011;19182;41.820;12.808;2023-07-09T11:23:39;16.27;;;6.82;;
32838;SDS011;19182;41.820;12.808;2023-07-09T11:28:39;8.40;;;4.82;;
32838;SDS011;19182;41.820;12.808;2023-07-09T11:31:21;9.70;;;5.45;;
32838;SDS011;19182;41.820;12.808;2023-07-09T11:33:48;17.58;;;6.80;;
32838;SDS011;19182;41.820;12.808;2023-07-09T11:36:45;8.07;;;4.47;;
32838;SDS011;19182;41.820;12.808;2023-07-09T11:41:56;9.13;;;5.25;;
32838;SDS011;19182;41.820;12.808;2023-07-09T11:44:23;9.70;;;4.70;;
32838;SDS011;19182;41.820;12.808;2023-07-09T11:47:03;8.55;;;4.80;;
32838;SDS011;19182;41.820;12.808;2023-07-09T11:49:50;9.27;;;4.80;;
32838;SDS011;19182;41.820;12.808;2023-07-09T11:52:36;6.05;;;5.45;;
32838;SDS011;19182;41.820;12.808;2023-07-09T11:55:51;10.05;;;5.30;;
32838;SDS011;19182;41.820;12.808;2023-07-09T11:58:17;6.43;;;4.38;;
32838;SDS011;19182;41.820;12.808;2023-07-09T12:00:45;9.23;;;4.65;;
32838;SDS011;19182;41.820;12.808;2023-07-09T12:03:21;8.40;;;5.25;;
32838;SDS011;19182;41.820;12.808;2023-07-09T12:05:51;7.53;;;4.80;;
32838;SDS011;19182;41.820;12.808;2023-07-09T12:08:21;11.98;;;5.18;;
32838;SDS011;19182;41.820;12.808;2023-07-09T12:10:52;6.70;;;4.25;;
32838;SDS011;19182;41.820;12.808;2023-07-09T12:13:18;6.50;;;4.40;;
32838;SDS011;19182;41.820;12.808;2023-07-09T12:15:45;11.60;;;4.40;;
32838;SDS011;19182;41.820;12.808;2023-07-09T12:18:12;6.82;;;4.35;;
32838;SDS011;19182;41.820;12.808;2023-07-09T12:20:40;9.93;;;5.13;;
32838;SDS011;19182;41.820;12.808;2023-07-09T12:23:15;8.98;;;4.75;;
32838;SDS011;19182;41.820;12.808;2023-07-09T12:25:51;9.50;;;6.13;;
32838;SDS011;19182;41.820;12.808;2023-07-09T12:28:18;8.43;;;4.20;;
32838;SDS011;19182;41.820;12.808;2023-07-09T12:30:46;6.72;;;4.53;;
32838;SDS011;19182;41.820;12.808;2023-07-09T12:33:20;9.32;;;4.75;;
32838;SDS011;19182;41.820;12.808;2023-07-09T12:35:48;7.03;;;3.83;;
32838;SDS011;19182;41.820;12.808;2023-07-09T12:38:27;8.27;;;4.75;;
32838;SDS011;19182;41.820;12.808;2023-07-09T12:40:59;9.15;;;5.10;;
32838;SDS011;19182;41.820;12.808;2023-07-09T12:43:27;4.90;;;3.75;;
32838;SDS011;19182;41.820;12.808;2023-07-09T12:45:56;7.32;;;4.13;;
32838;SDS011;19182;41.820;12.808;2023-07-09T12:48:24;7.25;;;4.38;;
32838;SDS011;19182;41.820;12.808;2023-07-09T12:50:54;9.73;;;4.40;;
32838;SDS011;19182;41.820;12.808;2023-07-09T12:53:22;7.65;;;4.20;;
32838;SDS011;19182;41.820;12.808;2023-07-09T12:55:51;8.05;;;4.55;;
32838;SDS011;19182;41.820;12.808;2023-07-09T12:58:36;14.23;;;4.97;;
32838;SDS011;19182;41.820;12.808;2023-07-09T13:01:13;7.45;;;4.20;;
32838;SDS011;19182;41.820;12.808;2023-07-09T13:03:41;7.57;;;4.13;;
32838;SDS011;19182;41.820;12.808;2023-07-09T13:06:28;9.07;;;4.50;;
32838;SDS011;19182;41.820;12.808;2023-07-09T13:08:59;8.57;;;4.15;;
32838;SDS011;19182;41.820;12.808;2023-07-09T13:11:33;10.02;;;4.50;;
32838;SDS011;19182;41.820;12.808;2023-07-09T13:14:02;10.30;;;4.97;;
32838;SDS011;19182;41.820;12.808;2023-07-09T13:16:29;7.25;;;4.70;;
32838;SDS011;19182;41.820;12.808;2023-07-09T13:18:55;12.57;;;4.57;;
32838;SDS011;19182;41.820;12.808;2023-07-09T13:21:22;12.70;;;5.00;;
32838;SDS011;19182;41.820;12.808;2023-07-09T13:23:48;9.60;;;4.53;;
32838;SDS011;19182;41.820;12.808;2023-07-09T13:26:14;9.02;;;4.55;;
32838;SDS011;19182;41.820;12.808;2023-07-09T13:28:42;6.13;;;3.75;;
32838;SDS011;19182;41.820;12.808;2023-07-09T13:31:12;11.77;;;4.78;;
32838;SDS011;19182;41.820;12.808;2023-07-09T13:34:04;8.00;;;3.92;;
32838;SDS011;19182;41.820;12.808;2023-07-09T13:36:33;10.15;;;4.72;;
32838;SDS011;19182;41.820;12.808;2023-07-09T13:38:59;10.25;;;5.20;;
32838;SDS011;19182;41.820;12.808;2023-07-09T13:41:25;11.63;;;3.97;;
32838;SDS011;19182;41.820;12.808;2023-07-09T13:43:51;10.70;;;4.53;;
32838;SDS011;19182;41.820;12.808;2023-07-09T13:46:22;9.73;;;4.40;;
32838;SDS011;19182;41.820;12.808;2023-07-09T13:48:50;12.20;;;4.40;;
32838;SDS011;19182;41.820;12.808;2023-07-09T13:51:17;9.27;;;5.28;;
32838;SDS011;19182;41.820;12.808;2023-07-09T13:53:46;9.73;;;4.63;;
32838;SDS011;19182;41.820;12.808;2023-07-09T13:56:12;12.70;;;4.75;;
32838;SDS011;19182;41.820;12.808;2023-07-09T13:58:38;8.02;;;5.10;;
32838;SDS011;19182;41.820;12.808;2023-07-09T14:01:14;9.23;;;4.72;;
32838;SDS011;19182;41.820;12.808;2023-07-09T14:03:43;7.88;;;4.53;;
32838;SDS011;19182;41.820;12.808;2023-07-09T14:06:12;8.65;;;4.65;;
32838;SDS011;19182;41.820;12.808;2023-07-09T14:08:39;10.13;;;5.10;;
32838;SDS011;19182;41.820;12.808;2023-07-09T14:11:14;14.48;;;4.57;;
32838;SDS011;19182;41.820;12.808;2023-07-09T14:13:42;9.05;;;4.75;;
32838;SDS011;19182;41.820;12.808;2023-07-09T14:16:10;9.00;;;4.50;;
32838;SDS011;19182;41.820;12.808;2023-07-09T14:18:37;15.30;;;4.33;;
32838;SDS011;19182;41.820;12.808;2023-07-09T14:21:09;6.60;;;4.40;;
32838;SDS011;19182;41.820;12.808;2023-07-09T14:23:38;9.82;;;4.68;;
32838;SDS011;19182;41.820;12.808;2023-07-09T14:26:04;10.13;;;5.43;;
32838;SDS011;19182;41.820;12.808;2023-07-09T14:28:30;9.00;;;5.20;;
32838;SDS011;19182;41.820;12.808;2023-07-09T14:30:56;9.93;;;5.55;;
32838;SDS011;19182;41.820;12.808;2023-07-09T14:33:22;6.72;;;4.57;;
32838;SDS011;19182;41.820;12.808;2023-07-09T14:35:48;10.40;;;4.78;;
32838;SDS011;19182;41.820;12.808;2023-07-09T14:38:22;7.47;;;4.88;;
32838;SDS011;19182;41.820;12.808;2023-07-09T14:40:49;11.70;;;4.30;;
32838;SDS011;19182;41.820;12.808;2023-07-09T14:43:16;8.25;;;4.60;;
32838;SDS011;19182;41.820;12.808;2023-07-09T14:45:42;9.75;;;4.78;;
32838;SDS011;19182;41.820;12.808;2023-07-09T14:48:09;9.63;;;5.05;;
32838;SDS011;19182;41.820;12.808;2023-07-09T14:50:36;5.60;;;4.13;;
32838;SDS011;19182;41.820;12.808;2023-07-09T14:53:02;5.95;;;4.32;;
32838;SDS011;19182;41.820;12.808;2023-07-09T14:55:28;5.70;;;4.40;;
32838;SDS011;19182;41.820;12.808;2023-07-09T14:57:54;15.23;;;4.78;;
32838;SDS011;19182;41.820;12.808;2023-07-09T15:00:21;12.50;;;5.00;;
32838;SDS011;19182;41.820;12.808;2023-07-09T15:02:50;11.27;;;4.57;;
32838;SDS011;19182;41.820;12.808;2023-07-09T15:05:22;7.10;;;4.72;;
32838;SDS011;19182;41.820;12.808;2023-07-09T15:07:49;8.55;;;4.95;;
32838;SDS011;19182;41.820;12.808;2023-07-09T15:10:17;9.70;;;4.47;;
32838;SDS011;19182;41.820;12.808;2023-07-09T15:12:47;7.63;;;4.53;;
32838;SDS011;19182;41.820;12.808;2023-07-09T15:15:27;7.50;;;4.70;;
32838;SDS011;19182;41.820;12.808;2023-07-09T15:17:56;6.40;;;4.50;;
32838;SDS011;19182;41.820;12.808;2023-07-09T15:20:33;7.97;;;4.10;;
32838;SDS011;19182;41.820;12.808;2023-07-09T15:22:59;5.68;;;3.90;;
32838;SDS011;19182;41.820;12.808;2023-07-09T15:25:25;6.63;;;4.20;;